sensor_id;sensor_type;location;lat;lon;timestamp;P1;durP1;ratioP1;P2;durP2;ratioP2
20287;SDS011;10303;51.960;8.372;2023-04-24T00:00:28;0.10;;;0.10;;
20287;SDS011;10303;51.960;8.372;2023-04-24T00:02:55;0.30;;;0.30;;
20287;SDS011;10303;51.960;8.372;2023-04-24T00:05:22;2.53;;;0.20;;
20287;SDS011;10303;51.960;8.372;2023-04-24T00:07:49;0.20;;;0.20;;
20287;SDS011;10303;51.960;8.372;2023-04-24T00:10:17;0.30;;;0.23;;
20287;SDS011;10303;51.960;8.372;2023-04-24T00:12:44;0.20;;;0.20;;
20287;SDS011;10303;51.960;8.372;2023-04-24T00:15:10;0.20;;;0.17;;
20287;SDS011;10303;51.960;8.372;2023-04-24T00:17:38;0.20;;;0.20;;
20287;SDS011;10303;51.960;8.372;2023-04-24T00:20:04;0.20;;;0.20;;
20287;SDS011;10303;51.960;8.372;2023-04-24T00:22:32;0.30;;;0.30;;
20287;SDS011;10303;51.960;8.372;2023-04-24T00:24:58;0.67;;;0.30;;
20287;SDS011;10303;51.960;8.372;2023-04-24T00:27:24;0.20;;;0.20;;
20287;SDS011;10303;51.960;8.372;2023-04-24T00:29:50;0.30;;;0.30;;
20287;SDS011;10303;51.960;8.372;2023-04-24T00:32:16;0.30;;;0.30;;
20287;SDS011;10303;51.960;8.372;2023-04-24T00:34:42;0.20;;;0.20;;
20287;SDS011;10303;51.960;8.372;2023-04-24T00:37:09;0.30;;;0.30;;
20287;SDS011;10303;51.960;8.372;2023-04-24T00:39:36;0.50;;;0.40;;
20287;SDS011;10303;51.960;8.372;2023-04-24T00:42:02;1.03;;;0.40;;
20287;SDS011;10303;51.960;8.372;2023-04-24T00:44:28;0.67;;;0.40;;
20287;SDS011;10303;51.960;8.372;2023-04-24T00:46:54;0.30;;;0.30;;
20287;SDS011;10303;51.960;8.372;2023-04-24T00:49:21;0.30;;;0.30;;
20287;SDS011;10303;51.960;8.372;2023-04-24T00:51:47;0.30;;;0.30;;
20287;SDS011;10303;51.960;8.372;2023-04-24T00:54:15;0.20;;;0.20;;
20287;SDS011;10303;51.960;8.372;2023-04-24T00:56:41;0.20;;;0.20;;
20287;SDS011;10303;51.960;8.372;2023-04-24T00:59:09;0.30;;;0.30;;
20287;SDS011;10303;51.960;8.372;2023-04-24T01:01:39;0.77;;;0.30;;
20287;SDS011;10303;51.960;8.372;2023-04-24T01:04:07;0.30;;;0.30;;
20287;SDS011;10303;51.960;8.372;2023-04-24T01:06:35;0.30;;;0.30;;
20287;SDS011;10303;51.960;8.372;2023-04-24T01:09:05;0.23;;;0.23;;
20287;SDS011;10303;51.960;8.372;2023-04-24T01:11:35;0.30;;;0.27;;
20287;SDS011;10303;51.960;8.372;2023-04-24T01:14:04;0.40;;;0.40;;
20287;SDS011;10303;51.960;8.372;2023-04-24T01:16:30;0.30;;;0.30;;
20287;SDS011;10303;51.960;8.372;2023-04-24T01:18:56;0.40;;;0.40;;
20287;SDS011;10303;51.960;8.372;2023-04-24T01:21:22;1.80;;;0.70;;
20287;SDS011;10303;51.960;8.372;2023-04-24T01:23:56;0.30;;;0.30;;
20287;SDS011;10303;51.960;8.372;2023-04-24T01:26:22;2.00;;;0.30;;
20287;SDS011;10303;51.960;8.372;2023-04-24T01:28:51;0.30;;;0.30;;
20287;SDS011;10303;51.960;8.372;2023-04-24T01:31:18;0.40;;;0.30;;
20287;SDS011;10303;51.960;8.372;2023-04-24T01:33:44;0.30;;;0.30;;
20287;SDS011;10303;51.960;8.372;2023-04-24T01:36:11;0.43;;;0.43;;
20287;SDS011;10303;51.960;8.372;2023-04-24T01:38:37;0.50;;;0.50;;
20287;SDS011;10303;51.960;8.372;2023-04-24T01:41:03;0.40;;;0.40;;
20287;SDS011;10303;51.960;8.372;2023-04-24T01:43:29;0.83;;;0.60;;
20287;SDS011;10303;51.960;8.372;2023-04-24T01:45:57;1.27;;;0.80;;
20287;SDS011;10303;51.960;8.372;2023-04-24T01:48:23;0.30;;;0.30;;
20287;SDS011;10303;51.960;8.372;2023-04-24T01:50:49;0.40;;;0.40;;
20287;SDS011;10303;51.960;8.372;2023-04-24T01:53:15;0.40;;;0.40;;
20287;SDS011;10303;51.960;8.372;2023-04-24T01:55:41;0.60;;;0.60;;
20287;SDS011;10303;51.960;8.372;2023-04-24T01:58:07;0.50;;;0.50;;
20287;SDS011;10303;51.960;8.372;2023-04-24T02:00:33;0.40;;;0.40;;
20287;SDS011;10303;51.960;8.372;2023-04-24T02:02:59;0.50;;;0.50;;
20287;SDS011;10303;51.960;8.372;2023-04-24T02:05:27;0.50;;;0.50;;
20287;SDS011;10303;51.960;8.372;2023-04-24T02:07:54;0.40;;;0.40;;
20287;SDS011;10303;51.960;8.372;2023-04-24T02:10:20;0.67;;;0.67;;
20287;SDS011;10303;51.960;8.372;2023-04-24T02:12:47;0.50;;;0.50;;
20287;SDS011;10303;51.960;8.372;2023-04-24T02:15:14;0.50;;;0.50;;
20287;SDS011;10303;51.960;8.372;2023-04-24T02:17:40;0.43;;;0.43;;
20287;SDS011;10303;51.960;8.372;2023-04-24T02:20:06;0.40;;;0.40;;
20287;SDS011;10303;51.960;8.372;2023-04-24T02:22:33;0.67;;;0.60;;
20287;SDS011;10303;51.960;8.372;2023-04-24T02:25:00;0.40;;;0.40;;
20287;SDS011;10303;51.960;8.372;2023-04-24T02:27:26;0.70;;;0.70;;
20287;SDS011;10303;51.960;8.372;2023-04-24T02:29:52;0.83;;;0.70;;
20287;SDS011;10303;51.960;8.372;2023-04-24T02:32:18;0.60;;;0.60;;
20287;SDS011;10303;51.960;8.372;2023-04-24T02:34:44;0.50;;;0.50;;
20287;SDS011;10303;51.960;8.372;2023-04-24T02:37:11;0.50;;;0.50;;
20287;SDS011;10303;51.960;8.372;2023-04-24T02:39:37;0.47;;;0.47;;
20287;SDS011;10303;51.960;8.372;2023-04-24T02:42:03;0.60;;;0.60;;
20287;SDS011;10303;51.960;8.372;2023-04-24T02:44:29;0.50;;;0.50;;
20287;SDS011;10303;51.960;8.372;2023-04-24T02:46:55;0.50;;;0.50;;
20287;SDS011;10303;51.960;8.372;2023-04-24T02:49:22;1.77;;;0.73;;
20287;SDS011;10303;51.960;8.372;2023-04-24T02:51:48;0.50;;;0.50;;
20287;SDS011;10303;51.960;8.372;2023-04-24T02:54:14;0.40;;;0.30;;
20287;SDS011;10303;51.960;8.372;2023-04-24T02:56:40;0.77;;;0.77;;
20287;SDS011;10303;51.960;8.372;2023-04-24T02:59:07;0.50;;;0.50;;
20287;SDS011;10303;51.960;8.372;2023-04-24T03:01:33;0.40;;;0.40;;
20287;SDS011;10303;51.960;8.372;2023-04-24T03:03:59;0.50;;;0.50;;
20287;SDS011;10303;51.960;8.372;2023-04-24T03:06:26;0.50;;;0.50;;
20287;SDS011;10303;51.960;8.372;2023-04-24T03:08:52;0.40;;;0.40;;
20287;SDS011;10303;51.960;8.372;2023-04-24T03:11:19;0.30;;;0.30;;
20287;SDS011;10303;51.960;8.372;2023-04-24T03:13:45;0.43;;;0.43;;
20287;SDS011;10303;51.960;8.372;2023-04-24T03:16:11;0.97;;;0.50;;
20287;SDS011;10303;51.960;8.372;2023-04-24T03:18:37;0.63;;;0.50;;
20287;SDS011;10303;51.960;8.372;2023-04-24T03:21:04;0.50;;;0.50;;
20287;SDS011;10303;51.960;8.372;2023-04-24T03:23:31;0.40;;;0.40;;
20287;SDS011;10303;51.960;8.372;2023-04-24T03:25:57;0.53;;;0.53;;
20287;SDS011;10303;51.960;8.372;2023-04-24T03:28:23;0.70;;;0.50;;
20287;SDS011;10303;51.960;8.372;2023-04-24T03:31:08;3.03;;;0.50;;
20287;SDS011;10303;51.960;8.372;2023-04-24T03:33:36;1.37;;;0.90;;
20287;SDS011;10303;51.960;8.372;2023-04-24T03:36:02;1.90;;;1.00;;
20287;SDS011;10303;51.960;8.372;2023-04-24T03:38:36;2.77;;;1.63;;
20287;SDS011;10303;51.960;8.372;2023-04-24T03:41:23;2.00;;;1.07;;
20287;SDS011;10303;51.960;8.372;2023-04-24T03:43:57;2.87;;;1.23;;
20287;SDS011;10303;51.960;8.372;2023-04-24T03:46:24;0.90;;;0.77;;
20287;SDS011;10303;51.960;8.372;2023-04-24T03:48:53;0.70;;;0.70;;
20287;SDS011;10303;51.960;8.372;2023-04-24T03:51:24;0.60;;;0.60;;
20287;SDS011;10303;51.960;8.372;2023-04-24T03:53:55;0.80;;;0.80;;
20287;SDS011;10303;51.960;8.372;2023-04-24T03:56:22;0.57;;;0.50;;
20287;SDS011;10303;51.960;8.372;2023-04-24T03:58:48;0.53;;;0.53;;
20287;SDS011;10303;51.960;8.372;2023-04-24T04:01:14;0.57;;;0.57;;
20287;SDS011;10303;51.960;8.372;2023-04-24T04:04:00;0.80;;;0.33;;
20287;SDS011;10303;51.960;8.372;2023-04-24T04:06:28;0.80;;;0.80;;
20287;SDS011;10303;51.960;8.372;2023-04-24T04:08:57;0.70;;;0.60;;
20287;SDS011;10303;51.960;8.372;2023-04-24T04:11:24;0.60;;;0.60;;
20287;SDS011;10303;51.960;8.372;2023-04-24T04:13:51;0.80;;;0.80;;
20287;SDS011;10303;51.960;8.372;2023-04-24T04:16:20;0.63;;;0.63;;
20287;SDS011;10303;51.960;8.372;2023-04-24T04:18:48;0.80;;;0.77;;
20287;SDS011;10303;51.960;8.372;2023-04-24T04:21:14;0.70;;;0.70;;
20287;SDS011;10303;51.960;8.372;2023-04-24T04:23:42;1.63;;;0.90;;
20287;SDS011;10303;51.960;8.372;2023-04-24T04:26:21;0.67;;;0.67;;
20287;SDS011;10303;51.960;8.372;2023-04-24T04:29:11;1.40;;;1.30;;
20287;SDS011;10303;51.960;8.372;2023-04-24T04:31:41;1.23;;;1.13;;
20287;SDS011;10303;51.960;8.372;2023-04-24T04:34:10;3.00;;;1.60;;
20287;SDS011;10303;51.960;8.372;2023-04-24T04:36:38;3.90;;;2.27;;
20287;SDS011;10303;51.960;8.372;2023-04-24T04:39:23;4.40;;;2.67;;
20287;SDS011;10303;51.960;8.372;2023-04-24T04:42:04;4.37;;;3.97;;
20287;SDS011;10303;51.960;8.372;2023-04-24T04:44:39;6.83;;;4.63;;
20287;SDS011;10303;51.960;8.372;2023-04-24T04:47:09;5.77;;;5.07;;
20287;SDS011;10303;51.960;8.372;2023-04-24T04:49:37;3.97;;;3.57;;
20287;SDS011;10303;51.960;8.372;2023-04-24T04:52:08;3.63;;;3.33;;
20287;SDS011;10303;51.960;8.372;2023-04-24T04:54:35;6.47;;;4.00;;
20287;SDS011;10303;51.960;8.372;2023-04-24T04:57:01;4.37;;;3.97;;
20287;SDS011;10303;51.960;8.372;2023-04-24T04:59:27;4.37;;;3.80;;
20287;SDS011;10303;51.960;8.372;2023-04-24T05:02:00;4.30;;;3.73;;
20287;SDS011;10303;51.960;8.372;2023-04-24T05:04:26;3.43;;;3.13;;
20287;SDS011;10303;51.960;8.372;2023-04-24T05:06:52;4.57;;;3.77;;
20287;SDS011;10303;51.960;8.372;2023-04-24T05:09:20;5.13;;;3.00;;
20287;SDS011;10303;51.960;8.372;2023-04-24T05:11:51;6.90;;;3.90;;
20287;SDS011;10303;51.960;8.372;2023-04-24T05:14:17;3.70;;;3.33;;
20287;SDS011;10303;51.960;8.372;2023-04-24T05:16:44;4.40;;;4.10;;
20287;SDS011;10303;51.960;8.372;2023-04-24T05:19:11;3.10;;;2.80;;
20287;SDS011;10303;51.960;8.372;2023-04-24T05:21:40;5.83;;;3.60;;
20287;SDS011;10303;51.960;8.372;2023-04-24T05:24:07;4.17;;;3.77;;
20287;SDS011;10303;51.960;8.372;2023-04-24T05:26:59;4.50;;;3.50;;
20287;SDS011;10303;51.960;8.372;2023-04-24T05:29:33;4.20;;;3.80;;
20287;SDS011;10303;51.960;8.372;2023-04-24T05:31:59;4.80;;;4.23;;
20287;SDS011;10303;51.960;8.372;2023-04-24T05:34:28;4.00;;;3.60;;
20287;SDS011;10303;51.960;8.372;2023-04-24T05:36:56;6.27;;;4.60;;
20287;SDS011;10303;51.960;8.372;2023-04-24T05:39:22;4.83;;;3.87;;
20287;SDS011;10303;51.960;8.372;2023-04-24T05:41:51;7.70;;;4.93;;
20287;SDS011;10303;51.960;8.372;2023-04-24T05:44:16;5.73;;;3.70;;
20287;SDS011;10303;51.960;8.372;2023-04-24T05:46:42;5.53;;;4.17;;
20287;SDS011;10303;51.960;8.372;2023-04-24T05:49:10;5.73;;;3.97;;
20287;SDS011;10303;51.960;8.372;2023-04-24T05:51:36;6.43;;;3.90;;
20287;SDS011;10303;51.960;8.372;2023-04-24T05:54:04;4.50;;;4.10;;
20287;SDS011;10303;51.960;8.372;2023-04-24T05:56:30;4.43;;;4.03;;
20287;SDS011;10303;51.960;8.372;2023-04-24T05:58:57;8.80;;;4.63;;
20287;SDS011;10303;51.960;8.372;2023-04-24T06:01:24;6.03;;;4.23;;
20287;SDS011;10303;51.960;8.372;2023-04-24T06:04:00;7.50;;;6.13;;
20287;SDS011;10303;51.960;8.372;2023-04-24T06:06:26;5.67;;;4.83;;
20287;SDS011;10303;51.960;8.372;2023-04-24T06:08:52;9.07;;;5.73;;
20287;SDS011;10303;51.960;8.372;2023-04-24T06:11:18;7.03;;;5.90;;
20287;SDS011;10303;51.960;8.372;2023-04-24T06:13:45;7.10;;;5.17;;
20287;SDS011;10303;51.960;8.372;2023-04-24T06:16:43;6.10;;;5.43;;
20287;SDS011;10303;51.960;8.372;2023-04-24T06:19:19;6.07;;;4.93;;
20287;SDS011;10303;51.960;8.372;2023-04-24T06:21:46;5.37;;;4.77;;
20287;SDS011;10303;51.960;8.372;2023-04-24T06:24:14;6.30;;;4.23;;
20287;SDS011;10303;51.960;8.372;2023-04-24T06:26:41;8.30;;;5.93;;
20287;SDS011;10303;51.960;8.372;2023-04-24T06:29:08;6.27;;;5.27;;
20287;SDS011;10303;51.960;8.372;2023-04-24T06:31:35;6.00;;;5.07;;
20287;SDS011;10303;51.960;8.372;2023-04-24T06:34:02;5.97;;;4.80;;
20287;SDS011;10303;51.960;8.372;2023-04-24T06:36:29;8.20;;;3.83;;
20287;SDS011;10303;51.960;8.372;2023-04-24T06:38:56;5.97;;;4.47;;
20287;SDS011;10303;51.960;8.372;2023-04-24T06:41:22;6.77;;;5.30;;
20287;SDS011;10303;51.960;8.372;2023-04-24T06:43:48;7.23;;;4.87;;
20287;SDS011;10303;51.960;8.372;2023-04-24T06:46:14;5.60;;;5.00;;
20287;SDS011;10303;51.960;8.372;2023-04-24T06:48:40;6.43;;;4.90;;
20287;SDS011;10303;51.960;8.372;2023-04-24T06:51:06;5.37;;;4.80;;
20287;SDS011;10303;51.960;8.372;2023-04-24T06:53:32;7.13;;;5.27;;
20287;SDS011;10303;51.960;8.372;2023-04-24T06:55:58;7.10;;;5.00;;
20287;SDS011;10303;51.960;8.372;2023-04-24T06:58:24;5.07;;;4.53;;
20287;SDS011;10303;51.960;8.372;2023-04-24T07:00:51;7.07;;;5.13;;
20287;SDS011;10303;51.960;8.372;2023-04-24T07:03:17;8.10;;;5.73;;
20287;SDS011;10303;51.960;8.372;2023-04-24T07:05:43;4.87;;;4.27;;
20287;SDS011;10303;51.960;8.372;2023-04-24T07:08:08;8.37;;;5.60;;
20287;SDS011;10303;51.960;8.372;2023-04-24T07:10:36;11.23;;;6.73;;
20287;SDS011;10303;51.960;8.372;2023-04-24T07:13:02;4.70;;;4.30;;
20287;SDS011;10303;51.960;8.372;2023-04-24T07:15:28;5.03;;;4.50;;
20287;SDS011;10303;51.960;8.372;2023-04-24T07:17:55;7.23;;;5.73;;
20287;SDS011;10303;51.960;8.372;2023-04-24T07:20:21;5.87;;;4.90;;
20287;SDS011;10303;51.960;8.372;2023-04-24T07:22:47;6.70;;;4.33;;
20287;SDS011;10303;51.960;8.372;2023-04-24T07:25:14;5.37;;;4.10;;
20287;SDS011;10303;51.960;8.372;2023-04-24T07:27:40;4.80;;;3.93;;
20287;SDS011;10303;51.960;8.372;2023-04-24T07:30:06;5.37;;;4.20;;
20287;SDS011;10303;51.960;8.372;2023-04-24T07:32:32;6.70;;;4.73;;
20287;SDS011;10303;51.960;8.372;2023-04-24T07:34:58;3.97;;;3.57;;
20287;SDS011;10303;51.960;8.372;2023-04-24T07:37:24;4.83;;;3.87;;
20287;SDS011;10303;51.960;8.372;2023-04-24T07:39:50;4.23;;;3.83;;
20287;SDS011;10303;51.960;8.372;2023-04-24T07:42:16;2.90;;;2.70;;
20287;SDS011;10303;51.960;8.372;2023-04-24T07:44:42;3.27;;;2.60;;
20287;SDS011;10303;51.960;8.372;2023-04-24T07:47:08;3.60;;;3.30;;
20287;SDS011;10303;51.960;8.372;2023-04-24T07:49:34;3.30;;;3.03;;
20287;SDS011;10303;51.960;8.372;2023-04-24T07:52:00;3.20;;;2.90;;
20287;SDS011;10303;51.960;8.372;2023-04-24T07:54:27;6.53;;;2.80;;
20287;SDS011;10303;51.960;8.372;2023-04-24T07:56:54;2.87;;;2.67;;
20287;SDS011;10303;51.960;8.372;2023-04-24T07:59:20;3.33;;;3.10;;
20287;SDS011;10303;51.960;8.372;2023-04-24T08:01:46;2.87;;;2.67;;
20287;SDS011;10303;51.960;8.372;2023-04-24T08:04:12;3.70;;;3.00;;
20287;SDS011;10303;51.960;8.372;2023-04-24T08:06:37;3.40;;;2.33;;
20287;SDS011;10303;51.960;8.372;2023-04-24T08:09:03;3.70;;;3.37;;
20287;SDS011;10303;51.960;8.372;2023-04-24T08:11:30;3.70;;;3.40;;
20287;SDS011;10303;51.960;8.372;2023-04-24T08:13:56;3.73;;;2.80;;
20287;SDS011;10303;51.960;8.372;2023-04-24T08:16:23;3.20;;;2.90;;
20287;SDS011;10303;51.960;8.372;2023-04-24T08:18:49;2.57;;;2.40;;
20287;SDS011;10303;51.960;8.372;2023-04-24T08:21:16;2.63;;;2.43;;
20287;SDS011;10303;51.960;8.372;2023-04-24T08:23:44;3.67;;;2.57;;
20287;SDS011;10303;51.960;8.372;2023-04-24T08:26:11;2.50;;;2.30;;
20287;SDS011;10303;51.960;8.372;2023-04-24T08:28:38;2.37;;;2.13;;
20287;SDS011;10303;51.960;8.372;2023-04-24T08:31:04;3.20;;;2.30;;
20287;SDS011;10303;51.960;8.372;2023-04-24T08:33:30;3.30;;;3.00;;
20287;SDS011;10303;51.960;8.372;2023-04-24T08:36:00;2.60;;;2.40;;
20287;SDS011;10303;51.960;8.372;2023-04-24T08:38:31;2.23;;;2.13;;
20287;SDS011;10303;51.960;8.372;2023-04-24T08:40:58;2.50;;;2.30;;
20287;SDS011;10303;51.960;8.372;2023-04-24T08:43:26;2.60;;;1.67;;
20287;SDS011;10303;51.960;8.372;2023-04-24T08:45:53;2.30;;;2.10;;
20287;SDS011;10303;51.960;8.372;2023-04-24T08:48:21;1.67;;;1.57;;
20287;SDS011;10303;51.960;8.372;2023-04-24T08:50:48;1.47;;;1.37;;
20287;SDS011;10303;51.960;8.372;2023-04-24T08:53:16;2.27;;;2.10;;
20287;SDS011;10303;51.960;8.372;2023-04-24T08:55:43;2.30;;;1.60;;
20287;SDS011;10303;51.960;8.372;2023-04-24T08:58:14;1.33;;;1.23;;
20287;SDS011;10303;51.960;8.372;2023-04-24T09:00:43;1.80;;;1.70;;
20287;SDS011;10303;51.960;8.372;2023-04-24T09:03:15;1.60;;;1.50;;
20287;SDS011;10303;51.960;8.372;2023-04-24T09:05:42;2.43;;;2.23;;
20287;SDS011;10303;51.960;8.372;2023-04-24T09:08:11;1.83;;;1.70;;
20287;SDS011;10303;51.960;8.372;2023-04-24T09:10:39;1.50;;;1.40;;
20287;SDS011;10303;51.960;8.372;2023-04-24T09:13:06;1.30;;;1.20;;
20287;SDS011;10303;51.960;8.372;2023-04-24T09:15:35;1.47;;;1.37;;
20287;SDS011;10303;51.960;8.372;2023-04-24T09:18:02;1.40;;;1.30;;
20287;SDS011;10303;51.960;8.372;2023-04-24T09:20:30;1.43;;;1.30;;
20287;SDS011;10303;51.960;8.372;2023-04-24T09:22:57;1.33;;;1.23;;
20287;SDS011;10303;51.960;8.372;2023-04-24T09:25:33;1.27;;;1.17;;
20287;SDS011;10303;51.960;8.372;2023-04-24T09:28:04;1.13;;;1.07;;
20287;SDS011;10303;51.960;8.372;2023-04-24T09:30:31;1.40;;;1.30;;
20287;SDS011;10303;51.960;8.372;2023-04-24T09:33:10;2.70;;;1.37;;
20287;SDS011;10303;51.960;8.372;2023-04-24T09:35:41;1.00;;;1.00;;
20287;SDS011;10303;51.960;8.372;2023-04-24T09:38:11;0.80;;;0.80;;
20287;SDS011;10303;51.960;8.372;2023-04-24T09:40:36;1.33;;;1.00;;
20287;SDS011;10303;51.960;8.372;2023-04-24T09:43:03;1.10;;;1.00;;
20287;SDS011;10303;51.960;8.372;2023-04-24T09:45:38;0.90;;;0.90;;
20287;SDS011;10303;51.960;8.372;2023-04-24T09:48:05;0.90;;;0.90;;
20287;SDS011;10303;51.960;8.372;2023-04-24T09:50:35;0.70;;;0.70;;
20287;SDS011;10303;51.960;8.372;2023-04-24T09:53:01;1.23;;;1.13;;
20287;SDS011;10303;51.960;8.372;2023-04-24T09:55:29;0.80;;;0.67;;
20287;SDS011;10303;51.960;8.372;2023-04-24T09:57:56;0.77;;;0.77;;
20287;SDS011;10303;51.960;8.372;2023-04-24T10:00:31;0.90;;;0.90;;
20287;SDS011;10303;51.960;8.372;2023-04-24T10:05:27;0.70;;;0.70;;
20287;SDS011;10303;51.960;8.372;2023-04-24T10:08:04;0.70;;;0.70;;
20287;SDS011;10303;51.960;8.372;2023-04-24T10:10:33;0.77;;;0.77;;
20287;SDS011;10303;51.960;8.372;2023-04-24T10:13:20;0.77;;;0.77;;
20287;SDS011;10303;51.960;8.372;2023-04-24T10:15:46;0.90;;;0.90;;
20287;SDS011;10303;51.960;8.372;2023-04-24T10:18:15;0.80;;;0.80;;
20287;SDS011;10303;51.960;8.372;2023-04-24T10:20:42;1.63;;;1.10;;
20287;SDS011;10303;51.960;8.372;2023-04-24T10:23:07;1.10;;;1.10;;
20287;SDS011;10303;51.960;8.372;2023-04-24T10:25:34;0.97;;;0.90;;
20287;SDS011;10303;51.960;8.372;2023-04-24T10:28:05;1.40;;;1.30;;
20287;SDS011;10303;51.960;8.372;2023-04-24T10:30:35;1.50;;;1.40;;
20287;SDS011;10303;51.960;8.372;2023-04-24T10:33:04;1.20;;;1.10;;
20287;SDS011;10303;51.960;8.372;2023-04-24T10:35:41;1.43;;;1.33;;
20287;SDS011;10303;51.960;8.372;2023-04-24T10:38:14;2.33;;;1.90;;
20287;SDS011;10303;51.960;8.372;2023-04-24T10:40:50;1.40;;;1.30;;
20287;SDS011;10303;51.960;8.372;2023-04-24T10:43:16;2.47;;;1.60;;
20287;SDS011;10303;51.960;8.372;2023-04-24T10:45:59;1.77;;;1.67;;
20287;SDS011;10303;51.960;8.372;2023-04-24T10:48:28;1.50;;;1.40;;
20287;SDS011;10303;51.960;8.372;2023-04-24T10:50:54;3.20;;;2.07;;
20287;SDS011;10303;51.960;8.372;2023-04-24T10:53:24;2.33;;;1.67;;
20287;SDS011;10303;51.960;8.372;2023-04-24T10:55:58;2.50;;;2.30;;
20287;SDS011;10303;51.960;8.372;2023-04-24T10:58:35;2.50;;;2.10;;
20287;SDS011;10303;51.960;8.372;2023-04-24T11:01:23;1.60;;;1.50;;
20287;SDS011;10303;51.960;8.372;2023-04-24T11:03:59;2.17;;;1.50;;
20287;SDS011;10303;51.960;8.372;2023-04-24T11:06:37;1.90;;;1.80;;
20287;SDS011;10303;51.960;8.372;2023-04-24T11:09:06;1.57;;;1.40;;
20287;SDS011;10303;51.960;8.372;2023-04-24T11:11:37;2.47;;;2.27;;
20287;SDS011;10303;51.960;8.372;2023-04-24T11:14:10;1.60;;;1.50;;
20287;SDS011;10303;51.960;8.372;2023-04-24T11:16:53;1.60;;;1.50;;
20287;SDS011;10303;51.960;8.372;2023-04-24T11:29:42;1.63;;;1.53;;
20287;SDS011;10303;51.960;8.372;2023-04-24T11:35:00;2.10;;;1.90;;
20287;SDS011;10303;51.960;8.372;2023-04-24T11:37:37;3.30;;;2.27;;
20287;SDS011;10303;51.960;8.372;2023-04-24T11:40:06;1.70;;;1.60;;
20287;SDS011;10303;51.960;8.372;2023-04-24T11:42:36;2.30;;;2.10;;
20287;SDS011;10303;51.960;8.372;2023-04-24T11:45:08;2.90;;;2.67;;
20287;SDS011;10303;51.960;8.372;2023-04-24T11:47:39;2.23;;;2.03;;
20287;SDS011;10303;51.960;8.372;2023-04-24T11:50:07;4.43;;;2.90;;
20287;SDS011;10303;51.960;8.372;2023-04-24T11:52:39;1.90;;;1.80;;
20287;SDS011;10303;51.960;8.372;2023-04-24T11:55:29;1.87;;;1.77;;
20287;SDS011;10303;51.960;8.372;2023-04-24T11:57:55;1.97;;;1.50;;
20287;SDS011;10303;51.960;8.372;2023-04-24T12:00:24;1.80;;;1.70;;
20287;SDS011;10303;51.960;8.372;2023-04-24T12:03:03;1.53;;;1.43;;
20287;SDS011;10303;51.960;8.372;2023-04-24T12:05:34;1.50;;;1.40;;
20287;SDS011;10303;51.960;8.372;2023-04-24T12:08:00;1.50;;;1.33;;
20287;SDS011;10303;51.960;8.372;2023-04-24T12:10:28;3.40;;;1.27;;
20287;SDS011;10303;51.960;8.372;2023-04-24T12:12:56;2.77;;;1.60;;
20287;SDS011;10303;51.960;8.372;2023-04-24T12:15:25;2.67;;;1.37;;
20287;SDS011;10303;51.960;8.372;2023-04-24T12:17:52;1.73;;;1.63;;
20287;SDS011;10303;51.960;8.372;2023-04-24T12:20:23;2.67;;;1.70;;
20287;SDS011;10303;51.960;8.372;2023-04-24T12:22:57;2.33;;;1.60;;
20287;SDS011;10303;51.960;8.372;2023-04-24T12:25:26;1.87;;;1.70;;
20287;SDS011;10303;51.960;8.372;2023-04-24T12:27:55;1.90;;;1.70;;
20287;SDS011;10303;51.960;8.372;2023-04-24T12:30:31;1.97;;;1.87;;
20287;SDS011;10303;51.960;8.372;2023-04-24T12:33:05;3.00;;;1.80;;
20287;SDS011;10303;51.960;8.372;2023-04-24T12:35:32;2.10;;;1.97;;
20287;SDS011;10303;51.960;8.372;2023-04-24T12:38:10;2.80;;;2.40;;
20287;SDS011;10303;51.960;8.372;2023-04-24T12:40:39;2.90;;;2.10;;
20287;SDS011;10303;51.960;8.372;2023-04-24T12:43:13;2.80;;;2.10;;
20287;SDS011;10303;51.960;8.372;2023-04-24T12:45:44;2.73;;;2.13;;
20287;SDS011;10303;51.960;8.372;2023-04-24T12:48:11;3.20;;;2.20;;
20287;SDS011;10303;51.960;8.372;2023-04-24T12:50:39;2.00;;;1.67;;
20287;SDS011;10303;51.960;8.372;2023-04-24T12:53:05;4.53;;;3.20;;
20287;SDS011;10303;51.960;8.372;2023-04-24T12:55:33;4.43;;;2.63;;
20287;SDS011;10303;51.960;8.372;2023-04-24T12:58:00;1.90;;;1.80;;
20287;SDS011;10303;51.960;8.372;2023-04-24T13:00:27;2.10;;;1.70;;
20287;SDS011;10303;51.960;8.372;2023-04-24T13:02:53;1.77;;;1.67;;
20287;SDS011;10303;51.960;8.372;2023-04-24T13:05:20;5.90;;;3.40;;
20287;SDS011;10303;51.960;8.372;2023-04-24T13:07:46;3.07;;;2.10;;
20287;SDS011;10303;51.960;8.372;2023-04-24T13:10:12;2.63;;;2.17;;
20287;SDS011;10303;51.960;8.372;2023-04-24T13:12:38;4.40;;;2.33;;
20287;SDS011;10303;51.960;8.372;2023-04-24T13:15:05;5.17;;;3.00;;
20287;SDS011;10303;51.960;8.372;2023-04-24T13:17:32;4.13;;;2.87;;
20287;SDS011;10303;51.960;8.372;2023-04-24T13:19:58;8.30;;;3.30;;
20287;SDS011;10303;51.960;8.372;2023-04-24T13:22:24;6.20;;;3.60;;
20287;SDS011;10303;51.960;8.372;2023-04-24T13:24:50;6.03;;;3.53;;
20287;SDS011;10303;51.960;8.372;2023-04-24T13:27:17;6.07;;;3.70;;
20287;SDS011;10303;51.960;8.372;2023-04-24T13:29:43;8.20;;;4.33;;
20287;SDS011;10303;51.960;8.372;2023-04-24T13:32:10;7.80;;;3.43;;
20287;SDS011;10303;51.960;8.372;2023-04-24T13:34:36;6.40;;;3.80;;
20287;SDS011;10303;51.960;8.372;2023-04-24T13:37:02;6.40;;;3.40;;
20287;SDS011;10303;51.960;8.372;2023-04-24T13:39:29;5.87;;;3.57;;
20287;SDS011;10303;51.960;8.372;2023-04-24T13:41:55;7.77;;;4.37;;
20287;SDS011;10303;51.960;8.372;2023-04-24T13:44:22;6.33;;;3.83;;
20287;SDS011;10303;51.960;8.372;2023-04-24T13:46:50;7.80;;;3.80;;
20287;SDS011;10303;51.960;8.372;2023-04-24T13:49:19;2.77;;;2.57;;
20287;SDS011;10303;51.960;8.372;2023-04-24T13:51:47;17.10;;;4.70;;
20287;SDS011;10303;51.960;8.372;2023-04-24T13:54:13;6.93;;;3.67;;
20287;SDS011;10303;51.960;8.372;2023-04-24T13:56:39;7.27;;;3.63;;
20287;SDS011;10303;51.960;8.372;2023-04-24T13:59:06;8.13;;;3.37;;
20287;SDS011;10303;51.960;8.372;2023-04-24T14:01:32;11.77;;;4.30;;
20287;SDS011;10303;51.960;8.372;2023-04-24T14:03:58;9.27;;;3.73;;
20287;SDS011;10303;51.960;8.372;2023-04-24T14:06:24;6.13;;;3.70;;
20287;SDS011;10303;51.960;8.372;2023-04-24T14:08:51;3.70;;;3.30;;
20287;SDS011;10303;51.960;8.372;2023-04-24T14:11:18;4.20;;;2.87;;
20287;SDS011;10303;51.960;8.372;2023-04-24T14:13:45;9.57;;;3.40;;
20287;SDS011;10303;51.960;8.372;2023-04-24T14:16:12;4.23;;;2.70;;
20287;SDS011;10303;51.960;8.372;2023-04-24T14:18:39;4.00;;;3.23;;
20287;SDS011;10303;51.960;8.372;2023-04-24T14:21:05;10.83;;;3.93;;
20287;SDS011;10303;51.960;8.372;2023-04-24T14:23:32;6.03;;;3.20;;
20287;SDS011;10303;51.960;8.372;2023-04-24T14:25:58;11.30;;;3.80;;
20287;SDS011;10303;51.960;8.372;2023-04-24T14:28:24;4.63;;;3.20;;
20287;SDS011;10303;51.960;8.372;2023-04-24T14:30:51;6.23;;;2.70;;
20287;SDS011;10303;51.960;8.372;2023-04-24T14:33:18;6.63;;;3.60;;
20287;SDS011;10303;51.960;8.372;2023-04-24T14:35:44;11.43;;;2.40;;
20287;SDS011;10303;51.960;8.372;2023-04-24T14:38:11;7.50;;;2.97;;
20287;SDS011;10303;51.960;8.372;2023-04-24T14:40:37;4.13;;;2.87;;
20287;SDS011;10303;51.960;8.372;2023-04-24T14:43:03;4.13;;;2.57;;
20287;SDS011;10303;51.960;8.372;2023-04-24T14:45:29;6.43;;;3.00;;
20287;SDS011;10303;51.960;8.372;2023-04-24T14:47:55;4.77;;;2.20;;
20287;SDS011;10303;51.960;8.372;2023-04-24T14:50:22;4.00;;;2.47;;
20287;SDS011;10303;51.960;8.372;2023-04-24T14:52:52;3.33;;;2.23;;
20287;SDS011;10303;51.960;8.372;2023-04-24T14:55:20;1.90;;;1.57;;
20287;SDS011;10303;51.960;8.372;2023-04-24T14:57:46;1.80;;;1.70;;
20287;SDS011;10303;51.960;8.372;2023-04-24T15:00:12;5.73;;;1.97;;
20287;SDS011;10303;51.960;8.372;2023-04-24T15:02:39;3.33;;;2.17;;
20287;SDS011;10303;51.960;8.372;2023-04-24T15:05:07;2.30;;;2.10;;
20287;SDS011;10303;51.960;8.372;2023-04-24T15:07:33;1.90;;;1.70;;
20287;SDS011;10303;51.960;8.372;2023-04-24T15:10:01;1.60;;;1.47;;